createdAt,value
2018-12-31T00:01:22.351Z,29.72
2018-12-31T00:04:03.574Z,28.90
2018-12-31T00:06:32.673Z,28.67
2018-12-31T00:09:20.651Z,28.67
2018-12-31T00:12:08.764Z,28.57
2018-12-31T00:14:56.748Z,28.52
2018-12-31T00:17:44.769Z,29.57
2018-12-31T00:20:32.801Z,30.05
2018-12-31T00:23:21.179Z,28.83
2018-12-31T00:26:09.206Z,30.05
2018-12-31T00:28:57.546Z,30.08
2018-12-31T00:31:45.658Z,30.23
2018-12-31T00:34:33.632Z,30.08
2018-12-31T00:37:40.976Z,29.25
2018-12-31T00:40:29.073Z,29.07
2018-12-31T00:43:17.071Z,28.83
2018-12-31T00:46:05.237Z,28.40
2018-12-31T00:48:53.224Z,28.20
2018-12-31T00:51:41.217Z,27.87
2018-12-31T00:54:29.201Z,26.82
2018-12-31T00:56:57.992Z,26.10
2018-12-31T00:59:45.991Z,26.25
2018-12-31T01:02:34.222Z,25.70
2018-12-31T01:05:22.613Z,25.20
2018-12-31T01:08:10.595Z,25.00
2018-12-31T01:10:58.687Z,23.92
2018-12-31T01:13:46.693Z,24.10
2018-12-31T01:16:34.660Z,23.93
2018-12-31T01:22:16.086Z,25.40
2018-12-31T01:25:04.510Z,26.60
2018-12-31T01:27:52.871Z,26.12
2018-12-31T01:30:40.862Z,26.95
2018-12-31T01:36:38.233Z,26.17
2018-12-31T01:39:26.320Z,26.97
2018-12-31T01:42:14.280Z,26.23
2018-12-31T01:45:02.292Z,26.60
2018-12-31T01:47:31.373Z,26.20
2018-12-31T01:50:19.652Z,27.02
2018-12-31T01:53:07.641Z,25.65
2018-12-31T01:55:55.617Z,26.10
2018-12-31T01:58:43.633Z,26.40
2018-12-31T02:01:31.623Z,26.15
2018-12-31T02:04:19.589Z,25.17
2018-12-31T02:07:07.580Z,24.07
2018-12-31T02:09:55.573Z,24.27
2018-12-31T02:12:44.100Z,24.32
2018-12-31T02:15:32.335Z,23.00
2018-12-31T02:18:20.348Z,21.80
2018-12-31T02:21:08.348Z,21.90
2018-12-31T02:23:56.361Z,21.65
2018-12-31T02:26:44.556Z,22.60
2018-12-31T02:29:32.549Z,21.87
2018-12-31T02:32:20.524Z,22.40
2018-12-31T02:35:08.459Z,22.53
2018-12-31T02:40:50.581Z,22.67
2018-12-31T02:43:38.520Z,21.85
2018-12-31T02:46:26.529Z,21.77
2018-12-31T02:49:06.844Z,21.60
2018-12-31T02:51:47.217Z,20.45
2018-12-31T02:54:27.812Z,21.13
2018-12-31T02:57:08.784Z,19.87
2018-12-31T02:59:49.176Z,19.80
2018-12-31T03:02:30.010Z,19.48
2018-12-31T03:05:10.749Z,19.83
2018-12-31T03:07:51.335Z,19.23
2018-12-31T03:10:31.850Z,19.15
2018-12-31T03:13:12.872Z,18.87
2018-12-31T03:15:53.774Z,18.37
2018-12-31T03:18:34.975Z,18.67
2018-12-31T03:21:15.498Z,18.77
2018-12-31T03:23:56.367Z,19.30
2018-12-31T03:26:36.893Z,19.10
2018-12-31T03:29:17.192Z,19.60
2018-12-31T03:31:57.887Z,19.85
2018-12-31T03:34:38.630Z,19.45
2018-12-31T03:37:19.785Z,20.53
2018-12-31T03:40:00.353Z,21.00
2018-12-31T03:42:41.106Z,21.87
2018-12-31T03:45:22.058Z,22.75
2018-12-31T03:48:02.656Z,23.22
2018-12-31T03:50:43.501Z,24.45
2018-12-31T03:53:24.286Z,24.55
2018-12-31T03:56:05.336Z,25.00
2018-12-31T03:58:46.139Z,24.23
2018-12-31T04:01:26.754Z,24.80
2018-12-31T04:04:07.443Z,25.00
2018-12-31T04:06:48.383Z,24.82
2018-12-31T04:09:29.334Z,25.27
2018-12-31T04:12:10.062Z,24.65
2018-12-31T04:14:50.908Z,24.50
2018-12-31T04:17:31.683Z,25.05
2018-12-31T04:20:12.988Z,24.15
2018-12-31T04:22:53.592Z,24.85
2018-12-31T04:25:34.885Z,24.35
2018-12-31T04:28:15.400Z,25.05
2018-12-31T04:30:56.062Z,24.85
2018-12-31T04:33:37.132Z,25.70
2018-12-31T04:36:17.972Z,25.82
2018-12-31T04:38:58.804Z,25.65
2018-12-31T04:41:39.906Z,26.27
2018-12-31T04:44:21.150Z,25.70
2018-12-31T04:47:01.933Z,26.10
2018-12-31T04:49:42.982Z,26.45
2018-12-31T04:52:23.698Z,25.50
2018-12-31T04:55:04.500Z,27.00
2018-12-31T04:57:45.387Z,26.77
2018-12-31T05:00:26.412Z,26.63
2018-12-31T05:03:07.411Z,27.30
2018-12-31T05:05:48.101Z,26.37
2018-12-31T05:08:28.981Z,26.40
2018-12-31T05:11:09.736Z,26.40
2018-12-31T05:13:50.737Z,27.42
2018-12-31T05:16:31.421Z,26.95
2018-12-31T05:19:11.733Z,25.77
2018-12-31T05:21:52.493Z,26.57
2018-12-31T05:24:32.986Z,27.00
2018-12-31T05:27:13.640Z,27.23
2018-12-31T05:29:54.617Z,27.95
2018-12-31T05:32:35.191Z,27.02
2018-12-31T05:35:15.943Z,27.58
2018-12-31T05:37:56.520Z,27.17
2018-12-31T05:40:36.893Z,27.62
2018-12-31T05:43:17.933Z,27.20
2018-12-31T05:45:59.233Z,27.62
2018-12-31T05:48:39.937Z,28.02
2018-12-31T05:51:20.814Z,29.23
2018-12-31T05:54:01.857Z,29.10
2018-12-31T05:56:43.254Z,28.02
2018-12-31T05:59:24.114Z,28.77
2018-12-31T06:02:05.417Z,28.30
2018-12-31T06:04:45.881Z,29.90
2018-12-31T06:07:26.942Z,28.73
2018-12-31T06:10:07.518Z,29.37
2018-12-31T06:12:48.042Z,28.05
2018-12-31T06:15:28.619Z,29.40
2018-12-31T06:18:09.056Z,29.30
2018-12-31T06:20:49.819Z,29.67
2018-12-31T06:23:30.905Z,29.07
2018-12-31T06:26:11.849Z,28.92
2018-12-31T06:28:52.549Z,29.27
2018-12-31T06:31:33.972Z,28.40
2018-12-31T06:34:03.147Z,28.60
2018-12-31T06:36:44.003Z,27.35
2018-12-31T06:39:24.500Z,27.75
2018-12-31T06:42:05.219Z,27.35
2018-12-31T06:44:46.040Z,29.80
2018-12-31T06:47:26.895Z,34.88
2018-12-31T06:50:07.497Z,34.13
2018-12-31T06:52:48.104Z,32.00
2018-12-31T06:55:28.800Z,30.62
2018-12-31T06:58:09.809Z,26.80
2018-12-31T07:00:51.004Z,25.95
2018-12-31T07:03:32.393Z,26.87
2018-12-31T07:06:13.440Z,26.33
2018-12-31T07:08:54.869Z,25.97
2018-12-31T07:11:35.716Z,26.35
2018-12-31T07:14:16.588Z,25.82
2018-12-31T07:16:57.360Z,28.02
2018-12-31T07:19:38.132Z,28.25
2018-12-31T07:22:19.098Z,26.00
2018-12-31T07:25:00.332Z,26.45
2018-12-31T07:27:41.262Z,26.50
2018-12-31T07:30:22.417Z,26.55
2018-12-31T07:33:03.317Z,24.55
2018-12-31T07:35:44.285Z,25.10
2018-12-31T07:38:25.027Z,24.72
2018-12-31T07:41:06.589Z,24.75
2018-12-31T07:43:47.459Z,26.50
2018-12-31T07:46:28.319Z,26.73
2018-12-31T07:49:09.159Z,26.97
2018-12-31T07:51:50.260Z,27.93
2018-12-31T07:54:31.174Z,27.13
2018-12-31T07:57:11.802Z,26.60
2018-12-31T07:59:52.712Z,26.12
2018-12-31T08:02:34.011Z,27.02
2018-12-31T08:05:14.760Z,26.93
2018-12-31T08:07:55.280Z,27.45
2018-12-31T08:10:36.321Z,28.00
2018-12-31T08:13:16.796Z,26.73
2018-12-31T08:15:57.755Z,27.60
2018-12-31T08:18:39.337Z,27.60
2018-12-31T08:21:20.338Z,28.40
2018-12-31T08:24:01.660Z,27.65
2018-12-31T08:26:42.348Z,28.27
2018-12-31T08:29:23.519Z,27.77
2018-12-31T08:32:04.108Z,28.13
2018-12-31T08:34:44.949Z,28.67
2018-12-31T08:37:25.794Z,31.57
2018-12-31T08:40:06.985Z,31.12
2018-12-31T08:42:48.159Z,31.37
2018-12-31T08:45:28.921Z,30.50
2018-12-31T08:48:09.922Z,29.10
2018-12-31T08:50:50.656Z,28.50
2018-12-31T08:53:31.508Z,29.23
2018-12-31T08:56:12.214Z,29.00
2018-12-31T08:58:56.172Z,29.30
2018-12-31T09:01:37.189Z,29.43
2018-12-31T09:04:21.378Z,31.20
2018-12-31T09:07:02.324Z,30.62
2018-12-31T09:09:43.298Z,30.45
2018-12-31T09:12:24.198Z,29.63
2018-12-31T09:15:05.278Z,29.37
2018-12-31T09:17:45.704Z,29.18
2018-12-31T09:20:26.232Z,28.95
2018-12-31T09:23:07.107Z,28.83
2018-12-31T09:25:48.272Z,28.95
2018-12-31T09:28:28.974Z,27.17
2018-12-31T09:31:09.673Z,25.62
2018-12-31T09:33:50.971Z,24.95
2018-12-31T09:36:31.783Z,24.43
2018-12-31T09:39:12.900Z,24.67
2018-12-31T09:41:53.672Z,25.40
2018-12-31T09:44:34.720Z,25.20
2018-12-31T09:47:16.080Z,25.17
2018-12-31T09:49:56.830Z,24.92
2018-12-31T09:52:37.492Z,24.10
2018-12-31T09:55:18.008Z,25.02
2018-12-31T09:57:59.177Z,25.02
2018-12-31T10:00:40.340Z,24.37
2018-12-31T10:03:20.935Z,24.27
2018-12-31T10:06:01.777Z,25.80
2018-12-31T10:08:49.142Z,24.67
2018-12-31T10:11:25.059Z,25.32
2018-12-31T10:14:05.458Z,24.95
2018-12-31T10:16:46.108Z,23.73
2018-12-31T10:19:26.770Z,23.77
2018-12-31T10:22:07.512Z,23.83
2018-12-31T10:24:48.277Z,24.77
2018-12-31T10:27:29.149Z,23.95
2018-12-31T10:30:09.616Z,23.80
2018-12-31T10:32:50.351Z,24.43
2018-12-31T10:35:31.537Z,24.07
2018-12-31T10:38:12.326Z,24.85
2018-12-31T10:40:53.484Z,24.60
2018-12-31T10:43:34.491Z,23.65
2018-12-31T10:58:42.019Z,22.82
2018-12-31T11:01:19.907Z,23.70
2018-12-31T11:04:07.904Z,22.50
2018-12-31T11:06:55.925Z,23.00
2018-12-31T11:09:43.948Z,24.00
2018-12-31T11:12:32.204Z,24.63
2018-12-31T11:15:20.693Z,24.05
2018-12-31T11:18:08.692Z,24.55
2018-12-31T11:20:56.740Z,24.60
2018-12-31T11:23:44.978Z,23.73
2018-12-31T11:26:33.489Z,23.45
2018-12-31T11:29:21.497Z,23.32
2018-12-31T11:32:09.541Z,23.77
2018-12-31T11:34:57.549Z,23.65
2018-12-31T11:37:38.676Z,25.12
2018-12-31T11:40:19.450Z,24.18
2018-12-31T11:42:59.909Z,23.47
2018-12-31T11:45:40.454Z,23.25
2018-12-31T11:48:28.763Z,23.10
2018-12-31T11:51:16.752Z,22.15
2018-12-31T11:54:04.752Z,22.65
2018-12-31T11:56:52.784Z,22.40
2018-12-31T11:59:41.089Z,22.85
2018-12-31T12:02:29.232Z,22.50
2018-12-31T12:08:24.941Z,20.37
2018-12-31T12:14:06.843Z,19.80
2018-12-31T12:16:54.830Z,19.77
2018-12-31T12:19:42.897Z,20.27
2018-12-31T12:22:11.696Z,20.17
2018-12-31T12:24:59.762Z,19.25
2018-12-31T12:27:47.812Z,19.42
2018-12-31T12:33:43.487Z,20.40
2018-12-31T12:36:31.512Z,20.37
2018-12-31T12:39:12.604Z,20.05
2018-12-31T12:41:54.072Z,20.35
2018-12-31T12:44:34.509Z,20.90
2018-12-31T12:47:15.316Z,20.40
2018-12-31T12:49:56.287Z,20.67
2018-12-31T12:52:37.518Z,20.30
2018-12-31T12:55:17.993Z,19.87
2018-12-31T12:57:58.767Z,21.00
2018-12-31T13:00:39.493Z,19.98
2018-12-31T13:03:22.505Z,20.65
2018-12-31T13:06:03.734Z,20.65
2018-12-31T13:08:44.538Z,20.80
2018-12-31T13:11:25.185Z,21.65
2018-12-31T13:14:06.204Z,21.87
2018-12-31T13:16:47.413Z,21.33
2018-12-31T13:19:28.333Z,20.92
2018-12-31T13:22:08.964Z,21.10
2018-12-31T13:24:49.844Z,20.88
2018-12-31T13:27:30.611Z,20.87
2018-12-31T13:30:11.893Z,21.95
2018-12-31T13:32:40.746Z,20.80
2018-12-31T13:35:28.738Z,21.62
2018-12-31T13:38:09.442Z,20.08
2018-12-31T13:40:49.878Z,20.90
2018-12-31T13:43:30.445Z,20.62
2018-12-31T13:46:12.107Z,21.48
2018-12-31T13:48:52.533Z,21.60
2018-12-31T13:51:33.300Z,21.93
2018-12-31T13:54:14.201Z,22.57
2018-12-31T13:56:54.979Z,23.10
2018-12-31T13:59:35.407Z,23.00
2018-12-31T14:02:16.400Z,23.47
2018-12-31T14:04:56.941Z,22.62
2018-12-31T14:07:38.076Z,22.73
2018-12-31T14:10:18.614Z,22.25
2018-12-31T14:12:59.335Z,22.35
2018-12-31T14:15:40.000Z,22.67
2018-12-31T14:18:20.857Z,22.98
2018-12-31T14:21:01.773Z,22.50
2018-12-31T14:23:42.148Z,22.58
2018-12-31T14:26:22.977Z,23.40
2018-12-31T14:29:03.661Z,22.95
2018-12-31T14:31:44.722Z,22.93
2018-12-31T14:34:25.956Z,22.60
2018-12-31T14:37:06.666Z,23.15
2018-12-31T14:39:47.576Z,23.95
2018-12-31T14:42:28.413Z,23.98
2018-12-31T14:45:09.136Z,24.27
2018-12-31T14:47:50.128Z,24.35
2018-12-31T14:50:31.136Z,24.63
2018-12-31T14:53:11.881Z,23.62
2018-12-31T14:55:53.236Z,24.80
2018-12-31T14:58:34.216Z,25.37
2018-12-31T15:01:14.820Z,25.08
2018-12-31T15:03:55.356Z,25.27
2018-12-31T15:06:36.253Z,25.92
2018-12-31T15:09:17.502Z,26.23
2018-12-31T15:11:58.189Z,26.23
2018-12-31T15:14:38.995Z,25.97
2018-12-31T15:17:19.343Z,26.60
2018-12-31T15:20:00.321Z,26.15
2018-12-31T15:22:40.949Z,27.02
2018-12-31T15:25:22.009Z,27.22
2018-12-31T15:28:02.995Z,27.50
2018-12-31T15:30:31.806Z,26.65
2018-12-31T15:33:20.098Z,27.90
2018-12-31T15:36:08.141Z,27.27
2018-12-31T15:38:48.690Z,28.07
2018-12-31T15:41:29.116Z,28.25
2018-12-31T15:44:10.149Z,28.00
2018-12-31T15:46:51.252Z,27.62
2018-12-31T15:49:32.336Z,28.42
2018-12-31T15:54:59.255Z,30.77
2018-12-31T15:57:40.500Z,31.45
2018-12-31T16:00:21.421Z,32.80
2018-12-31T16:03:02.753Z,38.42
2018-12-31T16:05:44.226Z,37.78
2018-12-31T16:08:25.872Z,36.80
2018-12-31T16:11:06.562Z,36.30
2018-12-31T16:13:47.864Z,35.78
2018-12-31T16:16:28.767Z,35.48
2018-12-31T16:19:09.301Z,32.73
2018-12-31T16:21:50.688Z,33.63
2018-12-31T16:24:31.957Z,34.27
2018-12-31T16:27:12.396Z,33.08
2018-12-31T16:29:54.281Z,32.08
2018-12-31T16:32:34.667Z,33.70
2018-12-31T16:35:15.517Z,32.98
2018-12-31T16:37:56.368Z,31.97
2018-12-31T16:40:37.029Z,31.43
2018-12-31T16:43:17.669Z,32.10
2018-12-31T16:45:58.651Z,31.33
2018-12-31T16:48:39.171Z,33.18
2018-12-31T16:51:20.128Z,36.40
2018-12-31T16:54:01.639Z,33.55
2018-12-31T16:56:42.768Z,34.00
2018-12-31T16:59:23.641Z,36.00
2018-12-31T17:02:04.037Z,35.43
2018-12-31T17:04:45.181Z,36.85
2018-12-31T17:07:28.439Z,35.28
2018-12-31T17:10:09.232Z,34.23
2018-12-31T17:12:50.012Z,34.40
2018-12-31T17:15:30.966Z,36.50
2018-12-31T17:18:12.113Z,36.75
2018-12-31T17:20:52.843Z,37.33
2018-12-31T17:23:33.609Z,37.75
2018-12-31T17:26:14.585Z,37.00
2018-12-31T17:28:55.409Z,35.30
2018-12-31T17:31:36.264Z,40.15
2018-12-31T17:34:17.260Z,41.15
2018-12-31T17:36:57.596Z,42.80
2018-12-31T17:39:38.433Z,42.73
2018-12-31T17:42:20.393Z,43.27
2018-12-31T17:45:01.382Z,42.70
2018-12-31T17:47:42.692Z,41.00
2018-12-31T17:50:23.832Z,38.67
2018-12-31T17:53:04.892Z,38.75
2018-12-31T17:55:45.568Z,40.20
2018-12-31T17:58:26.252Z,39.30
2018-12-31T18:01:07.500Z,41.18
2018-12-31T18:03:48.619Z,41.45
2018-12-31T18:06:29.784Z,41.65
2018-12-31T18:09:10.587Z,39.78
2018-12-31T18:11:51.560Z,43.30
2018-12-31T18:14:32.637Z,44.38
2018-12-31T18:17:13.732Z,43.85
2018-12-31T18:19:54.920Z,43.95
2018-12-31T18:22:35.960Z,43.30
2018-12-31T18:25:16.685Z,41.90
2018-12-31T18:27:57.954Z,42.65
2018-12-31T18:30:39.242Z,41.03
2018-12-31T18:33:19.847Z,40.23
2018-12-31T18:36:00.881Z,41.10
2018-12-31T18:38:42.072Z,41.42
2018-12-31T18:41:22.577Z,40.10
2018-12-31T18:44:03.101Z,39.67
2018-12-31T18:46:43.750Z,40.03
2018-12-31T18:49:24.560Z,39.25
2018-12-31T18:52:05.067Z,39.73
2018-12-31T18:54:45.720Z,37.70
2018-12-31T18:57:26.542Z,38.25
2018-12-31T19:00:07.361Z,37.70
2018-12-31T19:02:48.067Z,38.58
2018-12-31T19:05:28.749Z,37.98
2018-12-31T19:08:09.656Z,37.40
2018-12-31T19:10:50.607Z,37.53
2018-12-31T19:13:31.564Z,37.60
2018-12-31T19:16:12.656Z,36.17
2018-12-31T19:18:53.503Z,34.60
2018-12-31T19:21:34.415Z,43.30
2018-12-31T19:24:14.758Z,54.03
2018-12-31T19:26:55.550Z,51.37
2018-12-31T19:29:36.701Z,43.20
2018-12-31T19:32:17.685Z,39.35
2018-12-31T19:34:58.409Z,37.42
2018-12-31T19:37:39.783Z,36.20
2018-12-31T19:40:20.478Z,36.83
2018-12-31T19:43:00.967Z,37.42
2018-12-31T19:45:41.524Z,37.78
2018-12-31T19:48:22.197Z,37.93
2018-12-31T19:51:02.897Z,39.53
2018-12-31T19:53:43.684Z,38.83
2018-12-31T19:56:24.565Z,44.87
2018-12-31T19:59:05.542Z,42.33
2018-12-31T20:01:46.177Z,44.45
2018-12-31T20:04:26.868Z,38.88
2018-12-31T20:07:07.513Z,39.93
2018-12-31T20:09:48.333Z,38.63
2018-12-31T20:12:29.089Z,38.45
2018-12-31T20:15:10.320Z,37.40
2018-12-31T20:17:51.102Z,36.15
2018-12-31T20:20:31.658Z,47.67
2018-12-31T20:23:12.421Z,39.05
2018-12-31T20:25:53.084Z,40.40
2018-12-31T20:28:33.722Z,42.10
2018-12-31T20:31:14.600Z,38.28
2018-12-31T20:33:54.891Z,40.25
2018-12-31T20:36:36.566Z,39.67
2018-12-31T20:39:18.004Z,39.25
2018-12-31T20:41:59.042Z,46.13
2018-12-31T20:44:39.732Z,40.55
2018-12-31T20:47:20.624Z,54.53
2018-12-31T20:50:01.453Z,42.98
2018-12-31T20:52:42.505Z,40.45
2018-12-31T20:55:23.129Z,41.20
2018-12-31T20:58:04.074Z,38.95
2018-12-31T21:00:44.975Z,40.50
2018-12-31T21:03:25.324Z,39.93
2018-12-31T21:06:06.390Z,39.60
2018-12-31T21:08:47.035Z,37.93
2018-12-31T21:11:27.849Z,38.50
2018-12-31T21:14:08.432Z,40.78
2018-12-31T21:16:49.304Z,40.33
2018-12-31T21:19:30.353Z,40.92
2018-12-31T21:22:11.020Z,39.15
2018-12-31T21:24:51.916Z,39.87
2018-12-31T21:27:32.695Z,40.67
2018-12-31T21:30:13.349Z,39.15
2018-12-31T21:32:54.413Z,39.90
2018-12-31T21:35:35.273Z,41.33
2018-12-31T21:38:16.161Z,41.37
2018-12-31T21:40:56.915Z,41.40
2018-12-31T21:43:37.651Z,41.80
2018-12-31T21:46:18.372Z,43.70
2018-12-31T21:48:59.464Z,41.85
2018-12-31T21:51:40.216Z,43.50
2018-12-31T21:54:20.871Z,43.17
2018-12-31T21:57:01.825Z,42.38
2018-12-31T21:59:42.648Z,43.55
2018-12-31T22:02:23.409Z,44.25
2018-12-31T22:05:07.333Z,44.98
2018-12-31T22:07:48.553Z,45.38
2018-12-31T22:10:29.713Z,45.15
2018-12-31T22:13:10.328Z,44.73
2018-12-31T22:15:51.354Z,45.50
2018-12-31T22:18:32.192Z,46.02
2018-12-31T22:21:16.264Z,46.65
2018-12-31T22:23:57.305Z,46.35
2018-12-31T22:26:38.537Z,47.38
2018-12-31T22:29:19.535Z,46.75
2018-12-31T22:32:00.235Z,46.88
2018-12-31T22:34:41.242Z,46.80
2018-12-31T22:37:21.844Z,49.73
2018-12-31T22:40:03.366Z,50.07
2018-12-31T22:42:44.120Z,48.10
2018-12-31T22:45:24.708Z,47.17
2018-12-31T22:48:05.417Z,49.00
2018-12-31T22:50:46.444Z,48.90
2018-12-31T22:53:27.500Z,48.45
2018-12-31T22:56:08.168Z,50.08
2018-12-31T22:58:49.198Z,51.70
2018-12-31T23:01:30.180Z,49.63
2018-12-31T23:04:10.896Z,51.40
2018-12-31T23:06:51.759Z,602.20
2018-12-31T23:09:32.502Z,677.55
2018-12-31T23:12:13.272Z,528.23
2018-12-31T23:14:53.828Z,606.97
2018-12-31T23:17:34.685Z,783.58
2018-12-31T23:20:15.220Z,584.90
2018-12-31T23:22:55.700Z,708.42
2018-12-31T23:25:36.479Z,549.88
2018-12-31T23:28:17.101Z,246.27
2018-12-31T23:30:58.068Z,340.60
2018-12-31T23:33:38.882Z,320.55
2018-12-31T23:36:19.544Z,341.02
2018-12-31T23:39:05.189Z,331.20
2018-12-31T23:41:42.912Z,396.90
2018-12-31T23:44:23.521Z,353.65
2018-12-31T23:47:04.777Z,334.77
2018-12-31T23:49:45.375Z,246.40
2018-12-31T23:52:26.138Z,238.57
2018-12-31T23:55:06.689Z,251.73
2018-12-31T23:57:47.573Z,256.63
